Time;durP1;ratioP1;P1;durP2;ratioP2;P2;SDS_P1;SDS_P2;PMS_P1;PMS_P2;Temp;Humidity;BMP_temperature;BMP_pressure;BME280_temperature;BME280_humidity;BME280_pressure;Samples;Min_cycle;Max_cycle;Signal;HPM_P1;HPM_P2
2023/04/29 00:07:32;;;;;;;2.08;1.35;;;;;;;12.11;64.95;100517.28;15578110;28;20053;-49
2023/04/29 00:15:08;;;;;;;2.55;1.27;;;;;;;12.33;64.41;100515.75;15599078;28;20490;-50
2023/04/29 00:22:40;;;;;;;3.47;1.65;;;;;;;12.36;64.33;100518.00;15538190;28;20436;-53
2023/04/29 00:30:14;;;;;;;3.85;2.38;;;;;;;12.36;64.40;100509.13;15578671;28;20513;-50
2023/04/29 00:37:47;;;;;;;1.45;1.05;;;;;;;12.59;63.67;100524.50;15576751;28;20041;-47
2023/04/29 00:45:21;;;;;;;2.30;1.53;;;;;;;12.32;66.36;100505.22;15560109;28;20137;-47
2023/04/29 00:52:53;;;;;;;3.38;1.55;;;;;;;12.48;66.57;100516.16;15574230;28;20083;-48
2023/04/29 01:00:28;;;;;;;4.55;1.80;;;;;;;12.24;67.93;100512.56;15578140;28;20034;-50
2023/04/29 01:08:13;;;;;;;3.83;1.73;;;;;;;11.96;69.13;100496.16;15597680;28;20061;-48
2023/04/29 01:15:57;;;;;;;3.53;1.77;;;;;;;11.83;70.47;100502.50;15576686;28;20558;-50
2023/04/29 01:23:32;;;;;;;5.35;1.48;;;;;;;11.85;70.94;100507.66;15552939;28;20531;-50
2023/04/29 01:31:09;;;;;;;3.08;1.58;;;;;;;12.06;70.00;100507.19;15576114;28;20049;-52
2023/04/29 01:38:53;;;;;;;5.07;2.50;;;;;;;11.93;71.41;100499.28;15571251;28;20042;-50
2023/04/29 01:46:28;;;;;;;4.45;2.40;;;;;;;12.13;70.34;100502.56;15575233;28;20038;-51
2023/04/29 01:54:05;;;;;;;9.15;2.78;;;;;;;12.13;70.16;100507.13;15572078;28;20487;-49
2023/04/29 02:01:38;;;;;;;4.47;2.63;;;;;;;12.08;70.44;100502.44;15573518;28;20050;-52
2023/04/29 02:09:12;;;;;;;4.43;2.30;;;;;;;11.58;72.89;100507.91;15553860;28;20050;-49
2023/04/29 02:16:51;;;;;;;4.10;2.78;;;;;;;11.74;71.84;100488.50;15572574;28;20533;-51
2023/04/29 02:24:26;;;;;;;2.55;1.88;;;;;;;11.51;72.76;100488.31;15550623;28;20045;-52
2023/04/29 02:31:58;;;;;;;7.47;2.58;;;;;;;11.37;73.73;100487.63;15573707;28;20037;-49
2023/04/29 02:39:32;;;;;;;5.83;2.33;;;;;;;11.72;73.25;100490.59;15563754;28;20045;-50
2023/04/29 02:47:05;;;;;;;4.00;1.73;;;;;;;11.70;73.51;100486.47;15570697;28;20042;-50
2023/04/29 02:54:39;;;;;;;4.70;2.22;;;;;;;11.94;73.10;100492.88;15541966;28;20050;-51
2023/04/29 03:02:12;;;;;;;6.13;3.58;;;;;;;11.48;73.96;100484.25;15546932;28;20046;-53
2023/04/29 03:09:47;;;;;;;;;;;;;;;11.38;75.02;100483.94;15563797;28;20095;-50
2023/04/29 03:17:20;;;;;;;10.32;1.27;;;;;;;12.03;73.38;100480.75;15574330;28;20341;-51
2023/04/29 03:24:54;;;;;;;3.90;2.13;;;;;;;11.89;73.68;100463.13;15606015;28;20046;-53
2023/04/29 03:32:28;;;;;;;4.47;2.13;;;;;;;12.36;72.40;100474.13;15576979;28;20049;-50
2023/04/29 03:40:02;;;;;;;5.97;2.53;;;;;;;12.03;73.13;100472.69;15572501;28;20045;-51
2023/04/29 03:47:36;;;;;;;5.78;3.00;;;;;;;12.23;73.42;100470.56;15588267;28;20038;-55
2023/04/29 03:55:12;;;;;;;5.22;2.92;;;;;;;11.95;73.82;100475.69;15562352;28;20049;-50
2023/04/29 04:02:49;;;;;;;4.68;2.42;;;;;;;11.94;74.35;100463.28;15567985;28;20104;-56
2023/04/29 04:10:24;;;;;;;;;;;;;;;11.95;75.16;100476.50;15568960;28;20441;-52
2023/04/29 04:17:59;;;;;;;9.15;3.78;;;;;;;12.23;74.58;100488.56;15584390;28;19928;-51
2023/04/29 04:25:33;;;;;;;7.80;4.20;;;;;;;12.40;74.27;100488.75;15567196;28;20054;-51
2023/04/29 04:33:22;;;;;;;9.45;3.30;;;;;;;12.03;76.00;100491.53;15585554;28;20037;-48
2023/04/29 04:40:56;;;;;;;5.53;3.03;;;;;;;12.35;75.42;100494.00;15569231;28;20046;-49
2023/04/29 04:48:40;;;;;;;6.80;2.67;;;;;;;12.14;75.66;100492.63;15584842;28;20125;-50
2023/04/29 04:56:16;;;;;;;8.23;2.88;;;;;;;12.28;76.12;100493.28;15560782;28;20045;-49
2023/04/29 05:03:49;;;;;;;7.78;3.75;;;;;;;12.31;75.67;100500.88;15586734;28;20038;-49
2023/04/29 05:11:24;;;;;;;3.90;3.53;;;;;;;12.32;76.21;100502.53;15567268;28;20046;-48
2023/04/29 05:19:13;;;;;;;9.63;4.57;;;;;;;12.46;75.91;100507.50;15584559;28;20114;-48
2023/04/29 05:26:50;;;;;;;6.45;3.25;;;;;;;12.64;75.27;100512.03;15551178;28;20155;-49
2023/04/29 05:34:23;;;;;;;6.50;3.80;;;;;;;12.32;76.38;100513.31;15578552;28;20049;-49
2023/04/29 05:42:01;;;;;;;7.82;4.07;;;;;;;12.34;76.71;100516.56;15564711;28;20508;-47
2023/04/29 05:49:43;;;;;;;7.05;4.55;;;;;;;12.15;77.58;100515.78;15612253;28;20107;-49
2023/04/29 05:57:17;;;;;;;8.07;4.45;;;;;;;12.60;76.28;100529.69;15575041;28;20056;-47
2023/04/29 06:04:50;;;;;;;6.75;3.55;;;;;;;12.77;76.09;100529.84;15566158;28;20073;-48
2023/04/29 06:12:45;;;;;;;8.70;5.63;;;;;;;12.41;78.02;100534.28;15547802;28;20046;-51
2023/04/29 06:20:18;;;;;;;4.85;3.67;;;;;;;12.06;78.88;100530.59;15563235;28;20046;-52
2023/04/29 06:27:53;;;;;;;6.47;4.13;;;;;;;11.94;79.95;100547.50;15595153;28;20049;-49
2023/04/29 06:35:29;;;;;;;6.63;3.75;;;;;;;12.35;78.48;100551.31;15586591;28;20129;-53
2023/04/29 06:43:42;;;;;;;12.98;3.13;;;;;;;12.08;79.03;100567.00;15561595;28;20053;-50
2023/04/29 06:51:41;;;;;;;5.35;2.78;;;;;;;12.29;78.48;100570.25;15580312;28;20095;-51
2023/04/29 06:59:15;;;;;;;3.93;2.33;;;;;;;12.35;78.22;100577.44;15528122;28;20076;-49
2023/04/29 07:06:48;;;;;;;6.07;3.65;;;;;;;12.53;77.80;100590.88;15567904;28;20042;-51
2023/04/29 07:14:22;;;;;;;3.77;2.90;;;;;;;12.55;76.55;100596.88;15550712;28;20065;-49
2023/04/29 07:21:55;;;;;;;5.40;3.95;;;;;;;12.31;77.08;100614.75;15567225;28;20089;-53
2023/04/29 07:29:30;;;;;;;6.93;3.85;;;;;;;12.27;76.30;100620.81;15586893;28;20050;-48
2023/04/29 07:37:03;;;;;;;8.93;3.28;;;;;;;12.19;76.28;100635.38;15586190;28;20037;-49
2023/04/29 07:44:38;;;;;;;3.43;3.00;;;;;;;12.08;75.60;100639.63;15567680;28;20124;-47
2023/04/29 07:52:10;;;;;;;7.45;4.13;;;;;;;12.08;75.96;100663.03;15581611;28;20045;-51
2023/04/29 07:59:44;;;;;;;9.53;3.77;;;;;;;11.82;75.94;100669.44;15554454;28;20112;-51
2023/04/29 08:07:17;;;;;;;7.53;2.22;;;;;;;12.07;74.77;100688.25;15534155;28;20107;-52
2023/04/29 08:14:52;;;;;;;5.28;2.45;;;;;;;11.75;75.64;100699.06;15580050;28;20048;-48
2023/04/29 08:22:25;;;;;;;2.70;2.10;;;;;;;11.74;75.66;100714.34;15568879;28;20045;-49
2023/04/29 08:29:59;;;;;;;2.27;1.80;;;;;;;12.10;74.09;100723.63;15587947;28;20129;-51
2023/04/29 08:37:31;;;;;;;6.90;2.65;;;;;;;11.93;75.12;100736.78;15586540;28;20077;-49
2023/04/29 08:45:07;;;;;;;6.67;2.47;;;;;;;12.10;74.51;100750.53;15578549;28;20034;-48
2023/04/29 08:52:39;;;;;;;3.83;1.95;;;;;;;11.62;75.77;100759.13;15577975;28;20069;-52
2023/04/29 09:00:14;;;;;;;5.87;2.90;;;;;;;11.93;74.40;100781.69;15566628;28;20140;-48
2023/04/29 09:07:48;;;;;;;6.45;3.25;;;;;;;11.61;75.21;100792.44;15572393;28;20052;-47
2023/04/29 09:15:22;;;;;;;8.52;4.20;;;;;;;11.27;76.46;100806.25;15559548;28;20124;-47
2023/04/29 09:22:56;;;;;;;6.80;4.13;;;;;;;11.14;76.85;100809.81;15586562;28;20116;-52
2023/04/29 09:30:31;;;;;;;8.27;4.18;;;;;;;10.99;77.81;100831.53;15547630;28;20046;-52
2023/04/29 09:38:12;;;;;;;11.10;3.05;;;;;;;11.07;77.40;100841.25;15587921;28;20076;-50
2023/04/29 09:45:47;;;;;;;6.20;3.78;;;;;;;11.33;76.81;100843.84;15580314;28;20482;-48
2023/04/29 09:53:30;;;;;;;5.45;3.25;;;;;;;11.23;76.39;100852.34;15553070;28;20085;-51
2023/04/29 10:01:05;;;;;;;4.90;2.88;;;;;;;11.02;77.50;100875.97;15581751;28;20100;-48
2023/04/29 10:08:40;;;;;;;6.13;2.88;;;;;;;11.43;75.86;100879.16;15601225;28;20034;-52
2023/04/29 10:16:27;;;;;;;8.27;4.40;;;;;;;11.34;75.75;100895.75;15595605;28;20041;-47
2023/04/29 10:24:02;;;;;;;9.25;5.15;;;;;;;11.29;75.91;100909.81;15584974;28;20049;-51
2023/04/29 10:31:38;;;;;;;7.35;4.22;;;;;;;11.30;75.25;100908.75;15544750;23;20061;-53
2023/04/29 10:39:22;;;;;;;8.02;4.60;;;;;;;11.44;74.71;100926.50;15538600;28;20388;-50
2023/04/29 10:47:20;;;;;;;5.78;3.78;;;;;;;11.51;75.36;100937.22;15472307;28;20050;-50
2023/04/29 10:55:02;;;;;;;15.10;6.75;;;;;;;11.75;73.47;100933.03;15488431;28;20138;-49
2023/04/29 11:02:37;;;;;;;10.60;4.57;;;;;;;11.70;72.98;100941.72;15488915;28;20441;-48
2023/04/29 11:10:09;;;;;;;11.98;5.75;;;;;;;11.47;74.14;100944.91;15489432;28;20070;-50
2023/04/29 11:17:46;;;;;;;5.47;3.57;;;;;;;11.74;72.43;100956.38;15488791;28;20499;-54
2023/04/29 11:25:19;;;;;;;13.27;4.07;;;;;;;12.03;72.07;100966.84;15487158;28;20373;-49
2023/04/29 11:32:53;;;;;;;6.23;3.33;;;;;;;12.29;71.43;100974.78;15489058;28;20058;-50
2023/04/29 11:40:26;;;;;;;7.85;4.82;;;;;;;12.54;71.54;100982.09;15489022;28;20038;-51
2023/04/29 11:48:00;;;;;;;9.40;5.20;;;;;;;13.12;68.95;100984.56;15475536;28;20407;-49
2023/04/29 11:55:33;;;;;;;5.13;3.47;;;;;;;13.23;68.65;100990.06;15457102;28;20110;-51
2023/04/29 12:03:15;;;;;;;7.63;4.10;;;;;;;13.95;67.48;101008.44;15464546;28;20085;-55
2023/04/29 12:10:48;;;;;;;9.93;3.53;;;;;;;13.56;66.09;101012.38;15492309;28;20316;-52
2023/04/29 12:18:26;;;;;;;7.93;3.72;;;;;;;13.17;66.90;101012.50;15495646;28;20050;-50
2023/04/29 12:26:01;;;;;;;9.30;3.53;;;;;;;13.06;67.33;101026.69;15489826;28;20043;-51
2023/04/29 12:33:36;;;;;;;3.63;2.53;;;;;;;12.77;68.48;101034.34;15492546;28;20524;-52
2023/04/29 12:41:09;;;;;;;5.22;3.20;;;;;;;12.87;69.39;101033.03;15497770;28;20057;-50
2023/04/29 12:48:43;;;;;;;;;;;;;;;13.60;66.87;101030.56;15503183;28;20041;-53
2023/04/29 12:56:16;;;;;;;3.55;1.88;;;;;;;13.64;65.86;101036.34;15503473;28;19929;-49
2023/04/29 13:03:50;;;;;;;;;;;;;;;14.42;63.15;101041.06;15496451;28;20484;-53
2023/04/29 13:11:23;;;;;;;3.20;1.38;;;;;;;14.66;62.93;101034.72;15493723;28;20402;-55
2023/04/29 13:18:57;;;;;;;3.80;2.50;;;;;;;14.83;61.25;101043.00;15510567;28;20408;-51
2023/04/29 13:26:30;;;;;;;2.33;1.33;;;;;;;14.78;61.52;101051.81;15461229;28;20035;-52
2023/04/29 13:34:06;;;;;;;2.15;1.65;;;;;;;15.05;59.39;101056.78;15478128;28;20097;-52
2023/04/29 13:41:38;;;;;;;1.55;0.88;;;;;;;14.44;61.66;101064.06;15495994;28;20078;-52
2023/04/29 13:49:12;;;;;;;0.50;0.50;;;;;;;15.64;59.11;101060.41;15470056;28;20038;-53
2023/04/29 13:56:47;;;;;;;5.35;1.70;;;;;;;16.21;53.72;101055.13;15495069;28;20042;-50
2023/04/29 14:04:21;;;;;;;3.40;1.40;;;;;;;16.18;54.89;101062.91;15495189;28;20660;-50
2023/04/29 14:11:53;;;;;;;4.95;1.60;;;;;;;16.15;55.83;101063.41;15510250;28;20043;-50
2023/04/29 14:19:27;;;;;;;2.17;1.40;;;;;;;15.73;55.90;101074.41;15492721;28;20046;-52
2023/04/29 14:27:00;;;;;;;4.40;1.73;;;;;;;15.72;55.98;101089.00;15492750;28;20129;-52
2023/04/29 14:34:35;;;;;;;3.67;2.00;;;;;;;14.88;56.12;101088.25;15493183;28;20042;-49
2023/04/29 14:42:07;;;;;;;3.70;1.88;;;;;;;15.63;55.12;101096.63;15491201;28;20125;-52
2023/04/29 14:49:41;;;;;;;2.50;1.37;;;;;;;15.79;52.62;101093.22;15459661;28;20081;-52
2023/04/29 14:57:14;;;;;;;3.17;1.10;;;;;;;15.91;52.55;101112.19;15493742;28;20039;-53
2023/04/29 15:04:48;;;;;;;8.93;1.48;;;;;;;15.84;52.54;101105.22;15506860;28;20093;-54
2023/04/29 15:12:21;;;;;;;1.50;1.17;;;;;;;15.87;52.36;101105.59;15409182;28;20054;-52
2023/04/29 15:19:56;;;;;;;4.20;1.48;;;;;;;15.76;51.98;101103.69;15490949;28;20596;-51
2023/04/29 15:27:28;;;;;;;1.85;0.93;;;;;;;15.66;52.06;101111.56;15505918;28;20042;-53
2023/04/29 15:35:05;;;;;;;4.15;1.58;;;;;;;15.41;53.40;101119.88;15474135;28;20042;-52
2023/04/29 15:42:38;;;;;;;2.00;1.13;;;;;;;15.23;54.63;101123.47;15478669;28;20047;-50
2023/04/29 15:50:14;;;;;;;1.77;1.10;;;;;;;15.32;53.35;101127.50;15493581;28;20392;-50
2023/04/29 15:57:49;;;;;;;1.30;1.08;;;;;;;15.29;54.52;101136.94;15495996;28;20074;-54
2023/04/29 16:05:24;;;;;;;1.85;1.05;;;;;;;15.65;53.53;101151.34;15499355;28;20062;-53
2023/04/29 16:12:57;;;;;;;5.47;1.77;;;;;;;15.35;52.60;101159.50;15497677;28;20113;-54
2023/04/29 16:20:32;;;;;;;2.70;1.67;;;;;;;15.67;52.74;101153.84;15496479;28;20050;-53
2023/04/29 16:28:04;;;;;;;2.13;1.23;;;;;;;15.76;52.74;101166.78;15498375;28;20050;-52
2023/04/29 16:35:39;;;;;;;2.35;1.42;;;;;;;15.42;53.96;101164.81;15486884;28;20039;-55
2023/04/29 16:43:13;;;;;;;5.18;1.05;;;;;;;15.50;52.79;101169.88;15450534;28;20129;-56
2023/04/29 16:50:47;;;;;;;2.38;1.30;;;;;;;15.47;52.83;101173.88;15483078;28;20042;-53
2023/04/29 16:58:21;;;;;;;1.38;0.40;;;;;;;15.38;52.16;101172.56;15467167;28;20046;-54
2023/04/29 17:05:56;;;;;;;4.45;1.50;;;;;;;15.38;50.46;101182.56;15489915;28;20108;-54
2023/04/29 17:13:28;;;;;;;1.17;0.73;;;;;;;15.51;49.72;101183.16;15484654;28;20076;-56
2023/04/29 17:21:02;;;;;;;0.90;0.80;;;;;;;15.44;48.67;101187.88;15486386;28;20411;-54
2023/04/29 17:28:35;;;;;;;1.65;0.85;;;;;;;15.05;46.39;101200.91;15487112;28;20051;-53
2023/04/29 17:36:09;;;;;;;2.83;0.55;;;;;;;15.08;45.66;101215.03;15481448;28;20089;-54
2023/04/29 17:43:42;;;;;;;0.38;0.32;;;;;;;14.58;46.47;101217.91;15472603;28;20142;-52
2023/04/29 17:51:16;;;;;;;0.83;0.83;;;;;;;14.62;47.16;101222.63;15477776;28;20185;-55
2023/04/29 17:58:49;;;;;;;1.13;0.60;;;;;;;14.72;47.27;101235.63;15498382;28;20056;-57
2023/04/29 18:06:23;;;;;;;3.23;1.00;;;;;;;14.49;47.46;101237.09;15505704;28;20112;-51
2023/04/29 18:13:55;;;;;;;0.75;0.68;;;;;;;14.21;47.84;101251.06;15483993;28;20058;-56
2023/04/29 18:21:29;;;;;;;1.23;0.77;;;;;;;13.90;46.99;101264.66;15490842;28;20459;-52
2023/04/29 18:29:03;;;;;;;0.65;0.65;;;;;;;13.79;48.65;101277.75;15496054;28;20566;-52
2023/04/29 18:36:37;;;;;;;;;;;;;;;13.77;48.55;101276.34;15474152;28;20098;-55
2023/04/29 18:44:09;;;;;;;3.80;1.02;;;;;;;14.01;48.80;101289.03;15474689;28;19921;-53
2023/04/29 18:51:45;;;;;;;1.27;0.80;;;;;;;13.81;48.90;101295.63;15486509;28;20144;-52
2023/04/29 18:59:18;;;;;;;1.40;0.82;;;;;;;13.83;50.55;101307.84;15472850;28;20042;-51
2023/04/29 19:06:52;;;;;;;1.45;0.82;;;;;;;13.83;49.48;101326.72;15505776;28;20050;-51
2023/04/29 19:14:25;;;;;;;0.82;0.63;;;;;;;13.65;50.08;101332.84;15489394;28;20484;-54
2023/04/29 19:22:00;;;;;;;1.23;0.73;;;;;;;13.89;50.99;101341.22;15491243;28;20054;-51
2023/04/29 19:29:32;;;;;;;1.23;0.47;;;;;;;13.68;51.22;101345.91;15492011;28;20066;-56
2023/04/29 19:37:07;;;;;;;0.93;0.70;;;;;;;13.74;51.31;101350.44;15491325;28;20050;-55
2023/04/29 19:44:39;;;;;;;0.98;0.52;;;;;;;13.54;52.11;101363.22;15505541;28;20137;-57
2023/04/29 19:52:14;;;;;;;1.02;0.75;;;;;;;13.23;52.11;101366.66;15455572;28;20079;-56
2023/04/29 19:59:47;;;;;;;0.73;0.40;;;;;;;13.00;52.86;101376.00;15503996;28;20042;-58
2023/04/29 20:07:21;;;;;;;2.37;1.23;;;;;;;12.59;54.03;101378.13;15489784;28;20622;-56
2023/04/29 20:14:56;;;;;;;0.63;0.60;;;;;;;12.61;54.53;101384.16;15489241;28;20053;-56
2023/04/29 20:22:30;;;;;;;;;;;;;;;12.41;54.78;101392.22;15498913;28;20046;-54
2023/04/29 20:30:04;;;;;;;1.58;0.95;;;;;;;12.28;55.90;101401.13;15499085;28;20371;-51
2023/04/29 20:37:38;;;;;;;;;;;;;;;12.03;56.39;101408.09;15498853;28;20042;-52
2023/04/29 20:45:12;;;;;;;0.38;0.38;;;;;;;11.84;56.98;101407.00;15499258;28;19928;-52
2023/04/29 20:52:46;;;;;;;1.52;0.98;;;;;;;11.54;58.43;101418.03;15495723;28;20144;-52
2023/04/29 21:00:19;;;;;;;1.63;1.33;;;;;;;11.44;58.72;101425.66;15486692;28;20035;-54
2023/04/29 21:07:53;;;;;;;2.17;1.23;;;;;;;11.29;59.88;101430.31;15492017;28;20438;-52
2023/04/29 21:15:28;;;;;;;3.67;1.55;;;;;;;11.17;60.95;101441.59;15495844;28;20101;-54
2023/04/29 21:23:01;;;;;;;1.58;1.23;;;;;;;11.21;61.31;101445.56;15509989;28;20141;-50
2023/04/29 21:30:36;;;;;;;1.75;1.25;;;;;;;11.53;60.37;101447.81;15495193;28;20133;-53
2023/04/29 21:38:10;;;;;;;2.13;1.63;;;;;;;11.64;60.35;101447.25;15509529;28;20562;-48
2023/04/29 21:45:44;;;;;;;1.95;0.85;;;;;;;11.46;61.20;101461.22;15491172;28;20038;-51
2023/04/29 21:53:18;;;;;;;2.50;1.08;;;;;;;11.41;60.89;101464.50;15488260;28;20074;-51
2023/04/29 22:00:57;;;;;;;1.27;0.88;;;;;;;11.44;60.40;101465.97;15493335;28;20043;-55
2023/04/29 22:08:31;;;;;;;1.75;0.63;;;;;;;11.26;60.90;101487.16;15493205;28;20046;-52
2023/04/29 22:16:05;;;;;;;1.48;0.93;;;;;;;11.31;60.51;101495.44;15493468;28;20569;-55
2023/04/29 22:23:39;;;;;;;1.42;1.27;;;;;;;11.05;60.68;101515.75;15492908;28;20046;-53
2023/04/29 22:31:12;;;;;;;8.18;1.38;;;;;;;10.96;61.54;101527.63;15577255;23;20048;-51
2023/04/29 22:38:46;;;;;;;5.20;1.80;;;;;;;10.54;62.76;101529.31;15673512;28;20528;-49
2023/04/29 22:46:20;;;;;;;2.20;0.68;;;;;;;10.36;62.01;101545.00;15674940;28;20041;-50
2023/04/29 22:53:54;;;;;;;6.07;1.17;;;;;;;10.14;60.85;101544.06;15674586;28;20567;-52
2023/04/29 23:01:26;;;;;;;1.35;0.57;;;;;;;10.22;60.15;101552.03;15674619;28;20079;-55
2023/04/29 23:09:00;;;;;;;1.00;0.60;;;;;;;10.16;59.67;101560.81;15656527;28;20041;-53
2023/04/29 23:16:33;;;;;;;2.22;1.13;;;;;;;10.08;59.65;101567.13;15674399;28;20079;-51
2023/04/29 23:24:07;;;;;;;0.60;0.40;;;;;;;9.77;60.25;101569.16;15673872;28;20088;-54
2023/04/29 23:31:40;;;;;;;2.20;0.85;;;;;;;9.67;59.96;101578.31;15673184;28;20237;-53
2023/04/29 23:39:14;;;;;;;1.05;0.82;;;;;;;9.77;59.89;101586.06;15655218;28;20132;-55
2023/04/29 23:46:46;;;;;;;24.38;0.85;;;;;;;9.70;59.61;101590.53;15672759;28;20549;-52
2023/04/29 23:54:20;;;;;;;0.60;0.50;;;;;;;9.57;59.98;101585.78;15680616;28;20124;-52
